Time;durP1;ratioP1;P1;durP2;ratioP2;P2;SDS_P1;SDS_P2;PMS_P1;PMS_P2;Temp;Humidity;BMP_temperature;BMP_pressure;BME280_temperature;BME280_humidity;BME280_pressure;Samples;Min_cycle;Max_cycle;Signal;HPM_P1;HPM_P2
2023/01/14 00:01:51;;;;;;;34.58;21.42;;;11.70;99.90;;;;;;4902019;29;20058;-84
2023/01/14 00:04:17;;;;;;;27.17;19.67;;;11.70;99.90;;;;;;4917528;29;20051;-85
2023/01/14 00:06:43;;;;;;;34.47;21.25;;;11.70;99.90;;;;;;4935266;29;20039;-85
2023/01/14 00:09:12;;;;;;;37.55;21.67;;;11.70;99.90;;;;;;4917743;29;20493;-84
2023/01/14 00:11:51;;;;;;;29.08;20.52;;;11.60;99.90;;;;;;4917960;29;20035;-85
2023/01/14 00:14:22;;;;;;;33.38;20.23;;;11.40;99.90;;;;;;4907196;29;20044;-85
2023/01/14 00:16:49;;;;;;;30.23;19.58;;;11.40;99.90;;;;;;4914417;29;20028;-84
2023/01/14 00:19:15;;;;;;;31.30;19.55;;;11.30;99.90;;;;;;4916101;29;20075;-85
2023/01/14 00:21:43;;;;;;;28.95;19.10;;;11.30;99.90;;;;;;4934243;29;20035;-85
2023/01/14 00:24:10;;;;;;;31.52;20.85;;;11.30;99.90;;;;;;4925286;29;20055;-85
2023/01/14 00:26:37;;;;;;;39.05;20.52;;;11.30;99.90;;;;;;4907924;29;20036;-85
2023/01/14 00:29:03;;;;;;;42.67;21.40;;;11.20;99.90;;;;;;4910257;29;20032;-85
2023/01/14 00:31:29;;;;;;;33.90;22.15;;;11.20;99.90;;;;;;4917414;29;20039;-85
2023/01/14 00:33:57;;;;;;;46.88;24.13;;;11.20;99.90;;;;;;4916305;29;20058;-84
2023/01/14 00:36:24;;;;;;;36.28;22.73;;;11.20;99.90;;;;;;4921684;29;20436;-85
2023/01/14 00:38:50;;;;;;;29.67;20.77;;;11.20;99.90;;;;;;4920688;29;20048;-84
2023/01/14 00:41:22;;;;;;;43.17;21.13;;;11.20;99.90;;;;;;4905259;29;20047;-85
2023/01/14 00:43:50;;;;;;;28.08;20.70;;;11.20;99.90;;;;;;4920329;29;20506;-85
2023/01/14 00:46:19;;;;;;;36.28;21.33;;;11.20;99.90;;;;;;4921001;29;20031;-85
2023/01/14 00:48:45;;;;;;;31.55;21.55;;;11.20;99.90;;;;;;4905722;29;20039;-84
2023/01/14 00:51:11;;;;;;;40.67;21.92;;;11.20;99.90;;;;;;4920838;29;20032;-85
2023/01/14 00:53:38;;;;;;;35.95;20.15;;;11.20;99.90;;;;;;4901000;29;20406;-84
2023/01/14 00:56:05;;;;;;;34.00;21.15;;;11.20;99.90;;;;;;4921001;29;20028;-84
2023/01/14 00:58:31;;;;;;;42.08;20.90;;;11.20;99.90;;;;;;4920421;29;20404;-84
2023/01/14 01:00:57;;;;;;;37.85;19.02;;;11.20;99.90;;;;;;4904047;29;20047;-84
2023/01/14 01:03:23;;;;;;;31.38;20.10;;;11.20;99.90;;;;;;4938446;29;20031;-85
2023/01/14 01:05:49;;;;;;;27.58;21.20;;;11.20;99.90;;;;;;4938292;29;20028;-83
2023/01/14 01:08:17;;;;;;;32.40;20.95;;;11.30;99.90;;;;;;4919304;29;20040;-85
2023/01/14 01:10:44;;;;;;;34.20;18.70;;;11.30;99.90;;;;;;4921101;29;20044;-84
2023/01/14 01:13:10;;;;;;;30.15;19.63;;;11.30;99.90;;;;;;4904311;29;20063;-85
2023/01/14 01:15:37;;;;;;;28.73;19.67;;;11.30;99.90;;;;;;4925690;28;20050;-84
2023/01/14 01:18:03;;;;;;;28.48;19.83;;;11.30;99.90;;;;;;4920692;29;20032;-84
2023/01/14 01:20:30;;;;;;;35.67;20.83;;;11.30;99.90;;;;;;4920749;29;20048;-83
2023/01/14 01:22:56;;;;;;;26.42;19.08;;;11.40;99.90;;;;;;4920648;29;20397;-85
2023/01/14 01:25:22;;;;;;;28.58;19.23;;;11.30;99.90;;;;;;4900718;29;20044;-84
2023/01/14 01:27:48;;;;;;;35.22;19.60;;;11.30;99.90;;;;;;4947956;29;20035;-85
2023/01/14 01:30:14;;;;;;;31.05;19.42;;;11.30;99.90;;;;;;4920723;29;20031;-85
2023/01/14 01:32:41;;;;;;;33.25;18.42;;;11.30;99.90;;;;;;4901385;29;20047;-84
2023/01/14 01:35:07;;;;;;;28.40;18.45;;;11.30;99.90;;;;;;4932836;29;20051;-85
2023/01/14 01:37:33;;;;;;;34.35;19.05;;;11.30;99.90;;;;;;4901433;29;20044;-85
2023/01/14 01:39:59;;;;;;;29.88;18.65;;;11.30;99.90;;;;;;4919804;29;20048;-85
2023/01/14 01:42:28;;;;;;;35.38;19.10;;;11.40;99.90;;;;;;4919057;29;20035;-85
2023/01/14 01:45:13;;;;;;;33.40;19.70;;;11.30;99.90;;;;;;4918911;29;20043;-85
2023/01/14 01:47:39;;;;;;;34.47;19.25;;;11.40;99.90;;;;;;4935714;29;20490;-85
2023/01/14 01:50:05;;;;;;;29.08;18.35;;;11.40;99.90;;;;;;4920153;29;20027;-85
2023/01/14 01:52:31;;;;;;;27.38;18.67;;;11.40;99.90;;;;;;4920036;29;20043;-84
2023/01/14 01:55:02;;;;;;;27.15;19.33;;;11.40;99.90;;;;;;4920409;29;20501;-85
2023/01/14 01:57:28;;;;;;;39.55;19.25;;;11.40;99.90;;;;;;4917829;29;20028;-85
2023/01/14 01:59:57;;;;;;;25.30;18.17;;;11.40;99.90;;;;;;4917710;29;20050;-85
2023/01/14 02:02:24;;;;;;;31.67;18.23;;;11.40;99.90;;;;;;4919679;29;20043;-85
2023/01/14 02:04:50;;;;;;;29.20;18.17;;;11.40;99.90;;;;;;4919763;29;20035;-85
2023/01/14 02:07:24;;;;;;;26.60;18.40;;;11.40;99.90;;;;;;4919860;29;20032;-85
2023/01/14 02:09:54;;;;;;;28.65;17.95;;;11.40;99.90;;;;;;4920377;29;20035;-84
2023/01/14 02:12:32;;;;;;;26.83;17.27;;;11.50;99.90;;;;;;4918255;29;20039;-85
2023/01/14 02:15:29;;;;;;;28.33;18.17;;;11.40;99.90;;;;;;4936054;29;20376;-84
2023/01/14 02:18:20;;;;;;;34.30;18.77;;;11.40;99.90;;;;;;4934481;29;20527;-84
2023/01/14 02:20:48;;;;;;;29.73;16.20;;;11.50;99.90;;;;;;4935948;29;20047;-85
2023/01/14 02:23:58;;;;;;;28.77;17.65;;;11.40;99.90;;;;;;4919769;29;20035;-85
2023/01/14 02:26:46;;;;;;;26.83;17.63;;;11.50;99.90;;;;;;4935865;29;20389;-85
2023/01/14 02:29:27;;;;;;;22.20;18.05;;;11.50;99.90;;;;;;4919682;29;20042;-84
2023/01/14 02:31:58;;;;;;;26.20;17.30;;;11.50;99.90;;;;;;4936039;29;20408;-85
2023/01/14 02:34:32;;;;;;;22.92;17.90;;;11.50;99.90;;;;;;4918071;29;20066;-85
2023/01/14 02:37:20;;;;;;;22.63;17.60;;;11.50;99.90;;;;;;4918989;29;20023;-85
2023/01/14 02:39:51;;;;;;;31.17;19.35;;;11.50;99.90;;;;;;4936544;29;20039;-85
2023/01/14 02:45:13;;;;;;;29.23;19.08;;;11.60;99.90;;;;;;4921192;28;20047;-84
2023/01/14 02:47:39;;;;;;;28.77;18.92;;;11.60;99.90;;;;;;4918445;29;20079;-84
2023/01/14 02:50:06;;;;;;;27.17;18.30;;;11.60;99.90;;;;;;4919056;29;20385;-85
2023/01/14 02:52:32;;;;;;;25.52;19.05;;;11.60;99.90;;;;;;4919292;29;20032;-85
2023/01/14 02:55:00;;;;;;;21.95;18.02;;;11.60;99.90;;;;;;4936327;29;20385;-85
2023/01/14 02:57:59;;;;;;;20.23;17.70;;;11.50;99.90;;;;;;4902617;29;20119;-85
2023/01/14 03:00:29;;;;;;;25.00;18.45;;;11.50;99.90;;;;;;4917682;28;20051;-85
2023/01/14 03:03:23;;;;;;;28.45;17.45;;;11.50;99.90;;;;;;4902995;29;20040;-85
2023/01/14 03:06:14;;;;;;;31.33;19.05;;;11.50;99.90;;;;;;4924714;29;20036;-85
2023/01/14 03:08:51;;;;;;;23.23;18.20;;;11.50;99.90;;;;;;4912989;29;20044;-85
2023/01/14 03:11:17;;;;;;;24.25;17.75;;;11.50;99.90;;;;;;4915634;29;20380;-85
2023/01/14 03:13:59;;;;;;;21.33;18.02;;;11.50;99.90;;;;;;4898336;29;20052;-85
2023/01/14 03:16:29;;;;;;;19.75;17.83;;;11.50;99.90;;;;;;4906738;29;20488;-85
2023/01/14 03:19:08;;;;;;;19.55;17.70;;;11.40;99.90;;;;;;4916406;29;20405;-85
2023/01/14 03:21:36;;;;;;;21.80;18.80;;;11.40;99.90;;;;;;4918443;29;20409;-85
2023/01/14 03:24:05;;;;;;;21.63;19.65;;;11.50;99.90;;;;;;4916620;29;20042;-85
2023/01/14 03:26:32;;;;;;;22.13;19.90;;;11.40;99.90;;;;;;4936216;29;20038;-84
2023/01/14 03:29:00;;;;;;;20.45;18.75;;;11.40;99.90;;;;;;4915533;29;20034;-85
2023/01/14 03:31:27;;;;;;;20.88;18.42;;;11.40;99.90;;;;;;4915930;29;20048;-85
2023/01/14 03:33:58;;;;;;;20.95;19.08;;;11.40;99.90;;;;;;4899731;29;20043;-86
2023/01/14 03:36:25;;;;;;;20.35;18.35;;;11.40;99.90;;;;;;4917482;29;20042;-84
2023/01/14 03:39:04;;;;;;;20.95;19.42;;;11.40;99.90;;;;;;4918470;29;20054;-85
2023/01/14 03:44:30;;;;;;;20.73;19.02;;;11.40;99.90;;;;;;4920301;29;20034;-85
2023/01/14 03:46:57;;;;;;;19.58;18.35;;;11.40;99.90;;;;;;4916423;29;20032;-85
2023/01/14 03:49:24;;;;;;;21.52;19.52;;;11.40;99.90;;;;;;4917866;29;20060;-85
2023/01/14 03:51:55;;;;;;;22.17;20.10;;;11.40;99.90;;;;;;4918462;29;20043;-85
2023/01/14 03:54:21;;;;;;;;;;;11.50;99.90;;;;;;4919482;29;20100;-84
2023/01/14 03:57:11;;;;;;;17.40;15.73;;;11.50;99.90;;;;;;4933560;29;19906;-85
2023/01/14 03:59:52;;;;;;;19.75;18.13;;;11.50;99.90;;;;;;4917346;29;20043;-85
2023/01/14 04:02:18;;;;;;;20.90;19.00;;;11.50;99.90;;;;;;4933791;28;20401;-85
2023/01/14 04:04:45;;;;;;;18.73;17.40;;;11.40;99.90;;;;;;4902081;29;20039;-85
2023/01/14 04:07:11;;;;;;;21.13;19.50;;;11.40;99.90;;;;;;4917529;29;20027;-85
2023/01/14 04:09:37;;;;;;;21.20;19.73;;;11.50;99.90;;;;;;4900250;29;20067;-84
2023/01/14 04:12:04;;;;;;;22.25;20.35;;;11.50;99.90;;;;;;4934694;29;20038;-84
2023/01/14 04:17:14;;;;;;;22.00;19.90;;;11.50;99.90;;;;;;4919209;29;20413;-85
2023/01/14 04:19:40;;;;;;;20.38;18.73;;;11.50;99.90;;;;;;4918469;29;20040;-85
2023/01/14 04:22:06;;;;;;;21.25;19.42;;;11.60;99.90;;;;;;4901749;29;20043;-85
2023/01/14 04:24:32;;;;;;;20.58;19.08;;;11.60;99.90;;;;;;4917198;29;20493;-85
2023/01/14 04:26:58;;;;;;;21.05;19.25;;;11.50;99.90;;;;;;4926656;29;20032;-85
2023/01/14 04:29:24;;;;;;;19.55;18.13;;;11.60;99.90;;;;;;4936795;29;20393;-85
2023/01/14 04:31:51;;;;;;;21.38;19.65;;;11.60;99.90;;;;;;4902109;29;20028;-85
2023/01/14 04:34:17;;;;;;;22.10;20.35;;;11.50;99.90;;;;;;4917990;29;20811;-85
2023/01/14 04:36:43;;;;;;;22.27;20.42;;;11.60;99.90;;;;;;4917474;29;20042;-85
2023/01/14 04:39:09;;;;;;;21.95;20.17;;;11.60;99.90;;;;;;4917305;29;20065;-85
2023/01/14 04:44:20;;;;;;;20.98;19.27;;;11.60;99.90;;;;;;4921812;29;20063;-85
2023/01/14 04:46:46;;;;;;;20.15;18.65;;;11.60;99.90;;;;;;4931802;29;20043;-85
2023/01/14 04:49:12;;;;;;;19.27;17.88;;;11.60;99.90;;;;;;4917864;29;20032;-85
2023/01/14 04:51:38;;;;;;;20.90;19.02;;;11.60;99.90;;;;;;4917969;29;20028;-85
2023/01/14 04:54:04;;;;;;;20.20;18.50;;;11.60;99.90;;;;;;4916131;29;20050;-85
2023/01/14 04:56:30;;;;;;;19.00;17.25;;;11.60;99.90;;;;;;4900586;29;20036;-85
2023/01/14 04:59:01;;;;;;;20.88;18.90;;;11.60;99.90;;;;;;4915234;29;20027;-85
2023/01/14 05:01:31;;;;;;;;;;;11.60;99.90;;;;;;4916732;29;20044;-85
2023/01/14 05:03:58;;;;;;;18.60;17.30;;;11.60;99.90;;;;;;4916699;29;19910;-85
2023/01/14 05:06:28;;;;;;;18.33;16.77;;;11.60;99.90;;;;;;4916698;29;20039;-89
2023/01/14 05:08:54;;;;;;;18.40;16.95;;;11.60;99.90;;;;;;4919758;29;20366;-87
2023/01/14 05:11:20;;;;;;;18.25;16.77;;;11.60;99.90;;;;;;4911839;29;20051;-87
2023/01/14 05:13:46;;;;;;;20.40;18.75;;;11.60;99.90;;;;;;4908777;29;20059;-86
2023/01/14 05:16:16;;;;;;;19.88;18.38;;;11.70;99.90;;;;;;4919299;29;20043;-85
2023/01/14 05:18:42;;;;;;;19.30;18.00;;;11.70;99.90;;;;;;4917479;29;20040;-87
2023/01/14 05:21:08;;;;;;;20.50;19.15;;;11.70;99.90;;;;;;4902123;29;20055;-86
2023/01/14 05:23:35;;;;;;;19.15;17.85;;;11.80;99.90;;;;;;4920920;29;20051;-86
2023/01/14 05:26:01;;;;;;;20.55;19.20;;;11.70;99.90;;;;;;4939550;29;20482;-86
2023/01/14 05:28:27;;;;;;;19.33;18.08;;;11.80;99.90;;;;;;4908310;29;20031;-86
2023/01/14 05:30:53;;;;;;;19.33;18.02;;;11.80;99.90;;;;;;4936142;28;20402;-86
2023/01/14 05:33:19;;;;;;;19.02;17.63;;;11.80;99.90;;;;;;4920499;29;20028;-86
2023/01/14 05:35:45;;;;;;;17.67;16.58;;;11.80;99.90;;;;;;4937521;29;20389;-87
2023/01/14 05:38:11;;;;;;;20.05;18.42;;;11.80;99.90;;;;;;4937663;29;20035;-87
2023/01/14 05:40:37;;;;;;;19.27;18.13;;;11.80;99.90;;;;;;4919818;29;20050;-88
2023/01/14 05:45:48;;;;;;;22.10;20.77;;;11.90;99.90;;;;;;4922900;29;20058;-85
2023/01/14 05:48:32;;;;;;;28.50;26.77;;;11.90;99.90;;;;;;4920169;29;20031;-85
2023/01/14 05:50:59;;;;;;;23.25;22.02;;;11.90;99.90;;;;;;4903800;29;20039;-86
2023/01/14 05:53:27;;;;;;;24.73;23.42;;;12.00;99.90;;;;;;4918905;29;20039;-86
2023/01/14 05:55:53;;;;;;;22.25;21.08;;;12.00;99.90;;;;;;4919308;29;20028;-87
2023/01/14 05:58:20;;;;;;;25.35;23.95;;;12.00;99.90;;;;;;4903574;29;20040;-86
2023/01/14 06:06:22;;;;;;;25.00;23.70;;;12.10;99.90;;;;;;4927785;29;20047;-87
2023/01/14 06:08:50;;;;;;;26.38;24.98;;;12.10;99.90;;;;;;4920038;29;20051;-87
2023/01/14 06:11:18;;;;;;;28.60;27.05;;;12.10;99.90;;;;;;4920296;29;20032;-92
2023/01/14 06:13:45;;;;;;;29.55;28.15;;;12.10;99.90;;;;;;4915248;29;20039;-87
2023/01/14 06:16:11;;;;;;;26.40;24.90;;;12.20;99.90;;;;;;4902786;29;20050;-86
2023/01/14 06:18:41;;;;;;;28.27;26.95;;;12.10;99.90;;;;;;4903035;29;20050;-86
2023/01/14 06:21:09;;;;;;;27.98;26.63;;;12.20;99.90;;;;;;4919620;29;20038;-87
2023/01/14 06:23:35;;;;;;;27.88;26.48;;;12.20;99.90;;;;;;4919788;29;20035;-87
2023/01/14 06:26:01;;;;;;;26.55;25.15;;;12.20;99.90;;;;;;4920913;29;20473;-86
2023/01/14 06:28:30;;;;;;;29.88;28.48;;;12.20;99.90;;;;;;4924742;29;20039;-87
2023/01/14 06:30:56;;;;;;;28.40;27.05;;;12.20;99.90;;;;;;4903835;29;20042;-87
2023/01/14 06:33:23;;;;;;;29.23;27.73;;;12.20;99.90;;;;;;4917842;29;20043;-86
2023/01/14 06:35:49;;;;;;;24.98;23.67;;;12.20;99.90;;;;;;4902978;29;20039;-86
2023/01/14 06:38:16;;;;;;;24.55;23.35;;;12.20;99.90;;;;;;4918995;29;20044;-86
2023/01/14 06:40:42;;;;;;;24.10;22.80;;;12.30;99.90;;;;;;4919689;29;20066;-86
2023/01/14 06:43:08;;;;;;;25.45;23.98;;;12.30;99.90;;;;;;4918727;29;20031;-87
2023/01/14 06:45:34;;;;;;;25.92;24.67;;;12.30;99.90;;;;;;4918333;29;20043;-87
2023/01/14 06:48:00;;;;;;;26.90;25.40;;;12.30;99.90;;;;;;4918238;29;20043;-86
2023/01/14 06:50:27;;;;;;;28.42;27.02;;;12.30;99.90;;;;;;4887644;29;20036;-87
2023/01/14 06:52:53;;;;;;;28.85;27.40;;;12.30;99.90;;;;;;4903786;29;20500;-87
2023/01/14 06:55:22;;;;;;;30.85;29.33;;;12.30;99.90;;;;;;4888245;29;20043;-87
2023/01/14 06:57:48;;;;;;;34.80;32.90;;;12.40;99.90;;;;;;4917667;29;20040;-86
2023/01/14 07:00:14;;;;;;;37.22;35.40;;;12.30;99.90;;;;;;4918510;28;20543;-86
2023/01/14 07:02:41;;;;;;;41.42;39.22;;;12.30;99.90;;;;;;4934734;29;20031;-86
2023/01/14 07:05:07;;;;;;;43.88;41.58;;;12.40;99.90;;;;;;4918912;29;20050;-87
2023/01/14 07:07:33;;;;;;;43.22;41.00;;;12.40;99.90;;;;;;4919037;29;20393;-87
2023/01/14 07:09:59;;;;;;;39.88;37.42;;;12.50;99.90;;;;;;4935945;29;20039;-87
2023/01/14 07:12:25;;;;;;;45.40;43.13;;;12.50;99.90;;;;;;4917876;29;20046;-88
2023/01/14 07:14:51;;;;;;;48.03;45.58;;;12.50;99.90;;;;;;4918503;29;20036;-87
2023/01/14 07:17:17;;;;;;;41.42;39.25;;;12.50;99.90;;;;;;4933838;28;20378;-88
2023/01/14 07:19:43;;;;;;;32.33;30.50;;;12.60;99.90;;;;;;4919264;29;20036;-87
2023/01/14 07:22:09;;;;;;;28.27;26.58;;;12.60;99.90;;;;;;4937584;29;20106;-89
2023/01/14 07:24:37;;;;;;;23.73;22.38;;;12.70;99.90;;;;;;4914080;29;20048;-88
2023/01/14 07:27:04;;;;;;;23.95;22.65;;;12.60;99.90;;;;;;4935029;29;20034;-88
2023/01/14 07:29:30;;;;;;;24.05;22.75;;;12.60;99.90;;;;;;4926735;29;20078;-88
2023/01/14 07:31:56;;;;;;;26.33;24.92;;;12.70;99.90;;;;;;4933328;28;20040;-87
2023/01/14 07:34:22;;;;;;;26.35;24.85;;;12.70;99.90;;;;;;4902826;29;20035;-85
2023/01/14 07:36:48;;;;;;;26.88;25.48;;;12.70;99.90;;;;;;4902246;29;20040;-85
2023/01/14 07:39:14;;;;;;;31.33;29.50;;;12.70;99.90;;;;;;4901563;29;20040;-85
2023/01/14 07:41:41;;;;;;;33.75;32.05;;;12.70;99.90;;;;;;4916738;29;20055;-85
2023/01/14 07:44:07;;;;;;;37.10;35.20;;;12.70;99.90;;;;;;4918405;29;20027;-86
2023/01/14 07:46:33;;;;;;;33.38;31.45;;;12.70;99.90;;;;;;4917212;29;20035;-86
2023/01/14 07:48:59;;;;;;;35.00;33.25;;;12.70;99.90;;;;;;4918543;29;20032;-86
2023/01/14 07:51:25;;;;;;;29.52;27.77;;;12.80;99.90;;;;;;4902846;29;20050;-86
2023/01/14 07:53:51;;;;;;;26.40;24.75;;;12.80;99.90;;;;;;4918163;29;20389;-87
2023/01/14 07:56:18;;;;;;;26.20;24.83;;;12.80;99.90;;;;;;4917120;29;20032;-84
2023/01/14 07:58:44;;;;;;;20.70;19.42;;;12.80;99.90;;;;;;4917258;29;20492;-84
2023/01/14 08:01:10;;;;;;;23.27;21.73;;;12.80;99.90;;;;;;4902100;29;20035;-85
2023/01/14 08:03:39;;;;;;;21.15;19.85;;;12.80;99.90;;;;;;4917943;29;20110;-83
2023/01/14 08:06:06;;;;;;;22.42;21.02;;;12.90;99.90;;;;;;4917756;29;20452;-83
2023/01/14 08:08:33;;;;;;;19.63;18.42;;;12.90;99.90;;;;;;4917695;29;20048;-84
2023/01/14 08:11:02;;;;;;;20.20;18.98;;;12.90;99.90;;;;;;4902452;29;20028;-84
2023/01/14 08:13:28;;;;;;;18.58;17.27;;;12.90;99.90;;;;;;4900645;29;20062;-84
2023/01/14 08:15:55;;;;;;;18.02;16.92;;;12.90;99.90;;;;;;4917579;29;20042;-84
2023/01/14 08:18:21;;;;;;;19.27;17.95;;;12.90;99.90;;;;;;4918188;29;20046;-84
2023/01/14 08:20:47;;;;;;;20.50;19.33;;;12.90;99.90;;;;;;4916528;29;20059;-88
2023/01/14 08:23:13;;;;;;;21.60;20.23;;;12.90;99.90;;;;;;4917475;29;20473;-85
2023/01/14 08:25:39;;;;;;;22.02;20.63;;;12.90;99.90;;;;;;4901428;29;20054;-84
2023/01/14 08:28:05;;;;;;;22.63;21.02;;;13.00;99.90;;;;;;4934445;29;20386;-84
2023/01/14 08:30:31;;;;;;;22.30;20.80;;;13.00;99.90;;;;;;4928271;28;20036;-84
2023/01/14 08:32:57;;;;;;;21.77;20.38;;;13.00;99.90;;;;;;4918178;29;20032;-84
2023/01/14 08:35:24;;;;;;;21.88;20.38;;;13.00;99.90;;;;;;4918267;29;20050;-83
2023/01/14 08:37:50;;;;;;;19.20;17.88;;;13.00;99.90;;;;;;4917717;29;20027;-83
2023/01/14 08:40:17;;;;;;;18.75;17.45;;;13.10;99.90;;;;;;4933171;29;20055;-83
2023/01/14 08:42:44;;;;;;;20.13;18.48;;;13.10;99.90;;;;;;4903255;29;20036;-84
2023/01/14 08:45:10;;;;;;;21.02;19.23;;;13.10;99.90;;;;;;4917545;28;20058;-84
2023/01/14 08:47:36;;;;;;;21.55;20.02;;;13.10;99.90;;;;;;4917612;29;20036;-84
2023/01/14 08:50:02;;;;;;;22.63;20.80;;;13.10;99.90;;;;;;4916517;29;20028;-83
2023/01/14 08:52:32;;;;;;;21.38;19.77;;;13.10;99.90;;;;;;4900820;29;20039;-84
2023/01/14 08:54:58;;;;;;;21.83;20.20;;;13.10;99.90;;;;;;4917014;29;20039;-84
2023/01/14 08:57:24;;;;;;;21.55;19.98;;;13.10;99.90;;;;;;4938546;29;20043;-85
2023/01/14 08:59:50;;;;;;;23.73;21.35;;;13.20;99.90;;;;;;4920411;29;20051;-84
2023/01/14 09:02:16;;;;;;;23.33;21.60;;;13.20;99.90;;;;;;4900939;29;20056;-85
2023/01/14 09:04:42;;;;;;;22.75;21.10;;;13.20;99.90;;;;;;4926191;29;20032;-83
2023/01/14 09:18:06;;;;;;;20.60;19.20;;;13.30;99.90;;;;;;4927483;29;20039;-83
2023/01/14 09:20:34;;;;;;;21.95;20.27;;;13.30;99.90;;;;;;4912080;29;20039;-84
2023/01/14 09:23:01;;;;;;;22.00;20.05;;;13.30;99.90;;;;;;4919563;29;20039;-83
2023/01/14 09:25:27;;;;;;;24.40;22.27;;;13.40;99.90;;;;;;4904599;29;20035;-83
2023/01/14 09:27:53;;;;;;;22.52;20.90;;;13.40;99.90;;;;;;4920811;29;20042;-84
2023/01/14 09:30:20;;;;;;;23.33;21.48;;;13.40;99.90;;;;;;4918827;29;20042;-83
2023/01/14 09:32:46;;;;;;;22.55;20.70;;;13.40;99.90;;;;;;4927021;29;20036;-84
2023/01/14 09:35:12;;;;;;;24.38;22.23;;;13.50;99.90;;;;;;4932823;29;20047;-84
2023/01/14 09:37:38;;;;;;;23.17;21.33;;;13.50;99.90;;;;;;4935951;29;20043;-84
2023/01/14 09:40:05;;;;;;;26.38;24.25;;;13.50;99.90;;;;;;4919820;29;20063;-83
2023/01/14 09:42:40;;;;;;;22.83;20.45;;;13.50;99.90;;;;;;4920606;29;20066;-84
2023/01/14 09:45:10;;;;;;;27.58;25.48;;;13.50;99.90;;;;;;4917720;29;20053;-84
2023/01/14 09:47:37;;;;;;;21.63;20.10;;;13.50;99.90;;;;;;4920785;29;20027;-87
2023/01/14 09:50:06;;;;;;;22.50;20.70;;;13.50;99.90;;;;;;4916696;29;20033;-87
2023/01/14 09:52:47;;;;;;;24.02;21.77;;;13.50;99.90;;;;;;4922821;29;20031;-90
2023/01/14 09:55:30;;;;;;;20.98;19.30;;;13.60;99.90;;;;;;4937705;29;20477;-88
2023/01/14 09:57:57;;;;;;;20.80;19.20;;;13.50;99.90;;;;;;4920419;29;20035;-88
2023/01/14 10:00:48;;;;;;;29.92;27.25;;;13.60;99.90;;;;;;4918477;28;20040;-88
2023/01/14 10:03:44;;;;;;;22.80;20.67;;;13.60;99.90;;;;;;4920450;29;20040;-88
2023/01/14 10:06:17;;;;;;;20.77;19.17;;;13.60;99.90;;;;;;4928048;29;20040;-88
2023/01/14 10:09:03;;;;;;;22.67;20.88;;;13.60;99.90;;;;;;4915578;29;20051;-87
2023/01/14 10:11:35;;;;;;;23.55;21.35;;;13.60;99.90;;;;;;4918914;29;20035;-88
2023/01/14 10:14:06;;;;;;;20.02;17.92;;;13.60;99.90;;;;;;4889118;29;20051;-87
2023/01/14 10:16:35;;;;;;;21.05;19.13;;;13.60;99.90;;;;;;4918479;28;20039;-86
2023/01/14 10:19:04;;;;;;;21.25;19.10;;;13.60;99.90;;;;;;4906224;29;20039;-87
2023/01/14 10:22:07;;;;;;;26.00;20.33;;;13.60;99.90;;;;;;4923715;29;20059;-88
2023/01/14 10:24:33;;;;;;;23.55;21.33;;;13.60;99.90;;;;;;4933520;29;20047;-86
2023/01/14 10:26:59;;;;;;;22.48;20.20;;;13.60;99.90;;;;;;4922915;29;20036;-86
2023/01/14 10:29:28;;;;;;;24.55;22.40;;;13.70;99.90;;;;;;4919750;29;20394;-86
2023/01/14 10:31:57;;;;;;;24.67;22.60;;;13.70;99.90;;;;;;4901512;29;20048;-84
2023/01/14 10:34:37;;;;;;;25.83;23.60;;;13.70;99.90;;;;;;4919661;29;20035;-85
2023/01/14 10:37:05;;;;;;;40.03;37.00;;;13.70;99.90;;;;;;4916943;29;20051;-86
2023/01/14 10:39:31;;;;;;;43.95;40.80;;;13.70;99.90;;;;;;4919562;29;20039;-85
2023/01/14 10:42:00;;;;;;;46.08;42.85;;;13.70;99.90;;;;;;4903427;29;20520;-88
2023/01/14 10:44:31;;;;;;;43.47;40.35;;;13.80;99.90;;;;;;4918435;29;20500;-87
2023/01/14 10:46:58;;;;;;;48.95;45.80;;;13.80;99.90;;;;;;4915993;29;20036;-88
2023/01/14 10:49:37;;;;;;;42.53;39.28;;;13.80;99.90;;;;;;4914899;29;20042;-86
2023/01/14 10:52:31;;;;;;;41.53;38.28;;;13.80;99.90;;;;;;4919285;29;20039;-86
2023/01/14 10:55:07;;;;;;;42.15;39.30;;;13.80;99.90;;;;;;4919394;29;20024;-86
2023/01/14 10:57:34;;;;;;;32.55;30.00;;;13.80;99.90;;;;;;4919225;29;20508;-86
2023/01/14 11:00:00;;;;;;;37.70;34.60;;;13.80;99.90;;;;;;4918766;29;20032;-86
2023/01/14 11:02:26;;;;;;;34.28;31.45;;;13.90;99.90;;;;;;4918079;29;20051;-85
2023/01/14 11:04:52;;;;;;;38.33;35.35;;;13.90;99.90;;;;;;4932916;29;20043;-83
2023/01/14 11:07:39;;;;;;;23.70;21.77;;;13.90;99.90;;;;;;4918265;29;20031;-83
2023/01/14 11:10:22;;;;;;;25.80;23.38;;;13.80;99.90;;;;;;4879713;29;20032;-82
2023/01/14 11:12:50;;;;;;;23.67;21.23;;;13.80;99.90;;;;;;4884869;29;20044;-83
2023/01/14 11:15:36;;;;;;;27.42;25.27;;;13.80;99.90;;;;;;4868747;29;20051;-83
2023/01/14 11:18:25;;;;;;;28.05;25.52;;;13.80;99.90;;;;;;4912134;29;20024;-83
2023/01/14 11:21:00;;;;;;;28.20;25.85;;;13.80;99.90;;;;;;4937030;29;20043;-84
2023/01/14 11:23:28;;;;;;;24.60;22.45;;;13.80;99.90;;;;;;4932897;29;20048;-84
2023/01/14 11:25:55;;;;;;;31.92;28.83;;;13.80;99.90;;;;;;4918684;29;20054;-84
2023/01/14 11:28:22;;;;;;;24.73;22.55;;;13.80;99.90;;;;;;4888815;29;20405;-82
2023/01/14 11:30:49;;;;;;;27.60;25.52;;;13.80;99.90;;;;;;4918415;29;20024;-83
2023/01/14 11:33:23;;;;;;;25.55;23.33;;;13.80;99.90;;;;;;4918492;29;20036;-83
2023/01/14 11:35:51;;;;;;;26.70;20.88;;;13.80;99.90;;;;;;4917380;29;20020;-82
2023/01/14 11:38:21;;;;;;;21.63;19.65;;;13.90;99.90;;;;;;4906103;29;20051;-83
2023/01/14 11:44:16;;;;;;;23.55;20.55;;;13.90;99.90;;;;;;4917692;29;20074;-82
2023/01/14 11:46:44;;;;;;;36.13;33.15;;;13.90;99.90;;;;;;4910394;29;20048;-83
2023/01/14 11:49:18;;;;;;;32.25;28.77;;;13.90;99.90;;;;;;4913817;29;20035;-84
2023/01/14 11:51:59;;;;;;;27.92;25.45;;;13.90;99.90;;;;;;4902774;29;20047;-83
2023/01/14 11:54:37;;;;;;;25.27;23.03;;;13.90;99.90;;;;;;4911957;29;20044;-86
2023/01/14 11:57:16;;;;;;;28.83;24.17;;;13.90;99.90;;;;;;4917413;29;20784;-86
2023/01/14 11:59:42;;;;;;;28.08;24.65;;;13.90;99.90;;;;;;4916785;29;20036;-84
2023/01/14 12:02:24;;;;;;;27.80;24.92;;;13.80;99.90;;;;;;4900625;29;20047;-86
2023/01/14 12:05:19;;;;;;;26.02;23.95;;;13.80;99.90;;;;;;4915670;29;20043;-85
2023/01/14 12:07:53;;;;;;;26.73;23.00;;;13.70;99.90;;;;;;4903436;29;20388;-84
2023/01/14 12:10:36;;;;;;;25.15;22.63;;;13.70;99.90;;;;;;4913839;29;20505;-84
2023/01/14 12:16:50;;;;;;;27.00;22.08;;;13.70;99.90;;;;;;4923739;29;20051;-83
2023/01/14 12:19:19;;;;;;;28.20;25.52;;;13.70;99.90;;;;;;4919328;29;20055;-84
2023/01/14 12:21:55;;;;;;;29.25;26.75;;;13.60;99.90;;;;;;4931804;29;20099;-83
2023/01/14 12:24:24;;;;;;;36.35;33.33;;;13.60;99.90;;;;;;4915724;29;20031;-84
2023/01/14 12:26:50;;;;;;;33.63;30.73;;;13.60;99.90;;;;;;4924039;29;20070;-84
2023/01/14 12:29:21;;;;;;;31.98;29.17;;;13.60;99.90;;;;;;4908688;29;20042;-83
2023/01/14 12:32:03;;;;;;;33.88;31.02;;;13.60;99.90;;;;;;4918250;29;20047;-85
2023/01/14 12:34:41;;;;;;;30.88;28.40;;;13.60;99.90;;;;;;4920993;29;20032;-83
2023/01/14 12:37:31;;;;;;;28.67;25.75;;;13.50;99.90;;;;;;4920689;29;20035;-83
2023/01/14 12:46:03;;;;;;;27.00;24.58;;;13.50;99.90;;;;;;4923191;29;20038;-83
2023/01/14 12:48:29;;;;;;;26.08;23.73;;;13.50;99.90;;;;;;4919269;29;20048;-83
2023/01/14 12:51:08;;;;;;;24.55;22.20;;;13.50;99.90;;;;;;4920601;29;20047;-84
2023/01/14 12:53:41;;;;;;;24.77;22.63;;;13.50;99.90;;;;;;4936649;29;20047;-83
2023/01/14 12:56:08;;;;;;;26.25;24.52;;;13.50;99.90;;;;;;4920800;29;20028;-83
2023/01/14 12:58:36;;;;;;;30.85;28.52;;;13.50;99.90;;;;;;4920687;29;20035;-84
2023/01/14 13:01:05;;;;;;;32.03;29.55;;;13.50;99.90;;;;;;4904442;29;20028;-83
2023/01/14 13:03:52;;;;;;;33.80;31.40;;;13.50;99.90;;;;;;4901296;29;20052;-83
2023/01/14 13:06:33;;;;;;;36.55;33.88;;;13.50;99.90;;;;;;4930096;29;20035;-83
2023/01/14 13:09:00;;;;;;;36.95;34.33;;;13.50;99.90;;;;;;4905549;29;20044;-84
2023/01/14 13:11:47;;;;;;;39.70;36.75;;;13.50;99.90;;;;;;4919666;29;20039;-84
2023/01/14 13:14:34;;;;;;;38.72;35.90;;;13.50;99.90;;;;;;4921871;29;20051;-84
2023/01/14 13:17:06;;;;;;;36.05;33.88;;;13.50;99.90;;;;;;4921205;29;20034;-84
2023/01/14 13:19:35;;;;;;;36.05;33.80;;;13.50;99.90;;;;;;4920402;29;20098;-84
2023/01/14 13:22:10;;;;;;;31.30;29.45;;;13.50;99.90;;;;;;4901573;29;20043;-83
2023/01/14 13:24:44;;;;;;;35.58;33.40;;;13.50;99.90;;;;;;4933516;29;20048;-83
2023/01/14 13:27:40;;;;;;;38.17;36.13;;;13.50;99.90;;;;;;4941847;29;20039;-83